createdAt,value
2022-08-14T00:01:10.049Z,54.34
2022-08-14T00:03:38.456Z,54.69
2022-08-14T00:06:13.991Z,55.56
2022-08-14T00:08:52.999Z,52.69
2022-08-14T00:11:19.676Z,55.65
2022-08-14T00:13:52.743Z,53.98
2022-08-14T00:16:41.379Z,54.90
2022-08-14T00:19:19.761Z,56.32
2022-08-14T00:21:51.893Z,57.31
2022-08-14T00:24:22.935Z,57.92
2022-08-14T00:26:55.540Z,57.81
2022-08-14T00:29:22.026Z,57.00
2022-08-14T00:31:56.161Z,55.86
2022-08-14T00:34:36.804Z,53.26
2022-08-14T00:37:10.873Z,54.51
2022-08-14T00:39:37.671Z,56.50
2022-08-14T00:42:05.921Z,56.01
2022-08-14T00:44:33.280Z,58.07
2022-08-14T00:47:10.871Z,55.56
2022-08-14T00:49:43.044Z,56.81
2022-08-14T00:52:14.147Z,58.12
2022-08-14T00:54:45.798Z,54.49
2022-08-14T00:57:12.852Z,53.23
2022-08-14T00:59:39.592Z,53.23
2022-08-14T01:02:09.459Z,52.90
2022-08-14T01:04:54.391Z,52.96
2022-08-14T01:07:22.812Z,52.75
2022-08-14T01:10:07.607Z,52.75
2022-08-14T01:12:34.122Z,53.23
2022-08-14T01:15:09.460Z,53.45
2022-08-14T01:17:55.251Z,53.16
2022-08-14T01:20:41.265Z,52.91
2022-08-14T01:23:16.843Z,53.00
2022-08-14T01:25:47.974Z,53.05
2022-08-14T01:28:34.374Z,53.31
2022-08-14T01:31:02.003Z,55.22
2022-08-14T01:33:30.043Z,57.06
2022-08-14T01:36:05.480Z,57.58
2022-08-14T01:38:37.055Z,55.87
2022-08-14T01:41:14.954Z,55.02
2022-08-14T01:43:56.051Z,54.37
2022-08-14T01:46:25.398Z,54.45
2022-08-14T01:49:02.076Z,54.09
2022-08-14T01:51:30.359Z,55.00
2022-08-14T01:54:05.781Z,55.61
2022-08-14T01:56:39.772Z,54.62
2022-08-14T01:59:06.349Z,54.45
2022-08-14T02:01:37.043Z,54.58
2022-08-14T02:04:05.174Z,55.40
2022-08-14T02:06:50.955Z,54.68
2022-08-14T02:09:22.591Z,54.35
2022-08-14T02:11:54.582Z,54.21
2022-08-14T02:14:30.988Z,54.82
2022-08-14T02:16:59.719Z,55.00
2022-08-14T02:19:31.581Z,54.75
2022-08-14T02:22:03.133Z,56.33
2022-08-14T02:24:40.341Z,56.85
2022-08-14T02:28:23.886Z,57.28
2022-08-14T02:30:01.316Z,54.66
2022-08-14T02:32:30.288Z,56.82
2022-08-14T02:35:21.959Z,56.50
2022-08-14T02:37:52.971Z,54.23
2022-08-14T02:40:32.055Z,54.00
2022-08-14T02:43:03.672Z,53.69
2022-08-14T02:45:38.201Z,53.94
2022-08-14T02:49:03.243Z,54.51
2022-08-14T02:51:00.944Z,53.64
2022-08-14T02:53:29.485Z,53.60
2022-08-14T02:56:02.600Z,54.71
2022-08-14T02:58:33.203Z,54.45
2022-08-14T03:01:01.341Z,54.20
2022-08-14T03:03:31.718Z,54.26
2022-08-14T03:05:59.084Z,53.98
2022-08-14T03:08:31.589Z,53.82
2022-08-14T03:10:59.185Z,53.55
2022-08-14T03:13:25.719Z,54.95
2022-08-14T03:15:55.096Z,56.84
2022-08-14T03:18:31.372Z,57.37
2022-08-14T03:21:06.026Z,60.87
2022-08-14T03:23:37.681Z,58.12
2022-08-14T03:26:07.846Z,55.82
2022-08-14T03:28:34.454Z,62.54
2022-08-14T03:31:04.263Z,61.97
2022-08-14T03:33:40.818Z,62.52
2022-08-14T03:37:51.035Z,60.73
2022-08-14T03:39:15.529Z,58.81
2022-08-14T03:41:46.475Z,57.66
2022-08-14T03:45:20.037Z,56.11
2022-08-14T03:46:59.848Z,55.87
2022-08-14T03:49:30.297Z,58.45
2022-08-14T03:52:00.580Z,56.65
2022-08-14T03:54:28.191Z,56.00
2022-08-14T03:56:54.920Z,55.39
2022-08-14T03:59:21.603Z,55.99
2022-08-14T04:01:58.217Z,56.08
2022-08-14T04:04:28.111Z,55.09
2022-08-14T04:06:55.062Z,54.73
2022-08-14T04:09:26.954Z,57.22
2022-08-14T04:11:53.760Z,56.98
2022-08-14T04:14:20.317Z,55.63
2022-08-14T04:16:48.016Z,55.68
2022-08-14T04:19:18.734Z,55.52
2022-08-14T04:22:01.884Z,56.00
2022-08-14T04:24:37.791Z,57.06
2022-08-14T04:27:06.188Z,55.74
2022-08-14T04:29:42.692Z,55.31
2022-08-14T04:33:02.684Z,55.45
2022-08-14T04:34:58.592Z,58.74
2022-08-14T04:37:45.157Z,58.92
2022-08-14T04:40:31.695Z,57.42
2022-08-14T04:43:17.734Z,58.53
2022-08-14T04:45:44.843Z,61.00
2022-08-14T04:48:13.497Z,59.71
2022-08-14T04:50:45.466Z,59.71
2022-08-14T04:53:34.852Z,56.77
2022-08-14T04:56:03.330Z,56.23
2022-08-14T04:58:34.335Z,56.04
2022-08-14T05:01:06.112Z,55.58
2022-08-14T05:03:39.896Z,56.47
2022-08-14T05:06:37.569Z,55.76
2022-08-14T05:08:59.623Z,57.44
2022-08-14T05:11:27.309Z,55.49
2022-08-14T05:14:34.474Z,56.85
2022-08-14T05:16:42.541Z,57.22
2022-08-14T05:19:17.632Z,56.86
2022-08-14T05:22:01.367Z,55.36
2022-08-14T05:24:40.526Z,55.59
2022-08-14T05:27:06.974Z,55.46
2022-08-14T05:29:35.212Z,55.15
2022-08-14T05:32:07.447Z,55.78
2022-08-14T05:34:34.185Z,56.30
2022-08-14T05:37:03.144Z,54.58
2022-08-14T05:39:31.148Z,54.15
2022-08-14T05:41:58.017Z,53.91
2022-08-14T05:44:29.618Z,53.96
2022-08-14T05:46:57.335Z,54.40
2022-08-14T05:49:32.879Z,53.70
2022-08-14T05:52:01.911Z,55.21
2022-08-14T05:54:35.357Z,53.79
2022-08-14T05:57:04.327Z,54.15
2022-08-14T05:59:39.067Z,54.26
2022-08-14T06:02:06.951Z,53.36
2022-08-14T06:04:33.498Z,53.29
2022-08-14T06:06:59.983Z,53.59
2022-08-14T06:09:26.532Z,53.38
2022-08-14T06:11:53.243Z,55.26
2022-08-14T06:14:24.049Z,53.24
2022-08-14T06:16:53.044Z,52.06
2022-08-14T06:19:20.361Z,52.06
2022-08-14T06:21:54.398Z,50.67
2022-08-14T06:24:24.677Z,49.56
2022-08-14T06:26:56.733Z,50.47
2022-08-14T06:29:32.242Z,48.60
2022-08-14T06:32:36.848Z,49.38
2022-08-14T06:35:09.852Z,48.67
2022-08-14T06:38:00.075Z,51.36
2022-08-14T06:40:36.381Z,48.56
2022-08-14T06:43:10.061Z,47.22
2022-08-14T06:45:38.696Z,46.51
2022-08-14T06:48:14.496Z,47.64
2022-08-14T06:50:45.470Z,47.65
2022-08-14T06:53:14.662Z,47.59
2022-08-14T06:55:58.233Z,46.99
2022-08-14T06:58:29.205Z,46.83
2022-08-14T07:01:15.836Z,48.87
2022-08-14T07:04:01.029Z,45.77
2022-08-14T07:06:46.435Z,44.69
2022-08-14T07:09:19.807Z,45.54
2022-08-14T07:11:50.636Z,45.02
2022-08-14T07:14:17.548Z,47.95
2022-08-14T07:16:44.087Z,45.74
2022-08-14T07:19:11.312Z,45.55
2022-08-14T07:21:39.003Z,47.04
2022-08-14T07:24:05.796Z,47.92
2022-08-14T07:26:36.476Z,47.49
2022-08-14T07:29:05.758Z,47.18
2022-08-14T07:31:33.499Z,45.61
2022-08-14T07:34:00.060Z,45.29
2022-08-14T07:36:31.235Z,46.96
2022-08-14T07:39:02.923Z,47.45
2022-08-14T07:41:33.680Z,44.14
2022-08-14T07:44:22.478Z,43.04
2022-08-14T07:46:48.206Z,42.60
2022-08-14T07:49:18.044Z,44.27
2022-08-14T07:51:44.989Z,43.17
2022-08-14T07:54:12.424Z,42.80
2022-08-14T07:56:47.557Z,40.74
2022-08-14T07:59:18.566Z,41.47
2022-08-14T08:01:48.271Z,39.84
2022-08-14T08:04:27.254Z,39.99
2022-08-14T08:06:54.980Z,39.84
2022-08-14T08:09:25.014Z,41.07
2022-08-14T08:12:01.807Z,42.56
2022-08-14T08:14:55.490Z,40.17
2022-08-14T08:17:23.215Z,39.71
2022-08-14T08:19:51.636Z,40.12
2022-08-14T08:22:21.134Z,40.33
2022-08-14T08:24:50.540Z,38.67
2022-08-14T08:27:19.769Z,38.64
2022-08-14T08:29:50.509Z,40.19
2022-08-14T08:32:18.159Z,39.20
2022-08-14T08:34:46.185Z,39.05
2022-08-14T08:37:14.541Z,40.75
2022-08-14T08:40:02.976Z,41.19
2022-08-14T08:42:38.415Z,39.90
2022-08-14T08:45:12.258Z,41.73
2022-08-14T08:47:43.159Z,40.54
2022-08-14T08:53:04.040Z,40.64
2022-08-14T08:55:45.205Z,39.37
2022-08-14T08:58:20.177Z,39.42
2022-08-14T09:00:54.836Z,40.10
2022-08-14T09:03:25.641Z,38.54
2022-08-14T09:05:57.763Z,39.73
2022-08-14T09:08:32.761Z,40.57
2022-08-14T09:11:19.289Z,40.15
2022-08-14T09:13:50.335Z,41.25
2022-08-14T09:16:21.037Z,42.94
2022-08-14T09:18:48.934Z,41.44
2022-08-14T09:21:16.391Z,40.91
2022-08-14T09:24:27.482Z,41.41
2022-08-14T09:26:29.989Z,43.31
2022-08-14T09:29:00.044Z,41.61
2022-08-14T09:31:42.937Z,40.08
2022-08-14T09:34:37.110Z,40.88
2022-08-14T09:37:08.196Z,40.63
2022-08-14T09:39:50.348Z,39.94
2022-08-14T09:42:36.948Z,41.23
2022-08-14T09:45:20.873Z,40.38
2022-08-14T09:47:51.844Z,40.32
2022-08-14T09:50:29.774Z,39.10
2022-08-14T09:53:05.794Z,38.74
2022-08-14T09:55:44.707Z,39.46
2022-08-14T09:58:14.816Z,39.85
2022-08-14T10:01:00.712Z,39.76
2022-08-14T10:03:35.945Z,39.35
2022-08-14T10:06:10.170Z,37.74
2022-08-14T10:09:06.491Z,39.36
2022-08-14T10:11:43.365Z,39.23
2022-08-14T10:14:35.255Z,39.28
2022-08-14T10:17:06.270Z,38.50
2022-08-14T10:19:35.529Z,38.05
2022-08-14T10:23:12.613Z,37.06
2022-08-14T10:24:57.302Z,37.10
2022-08-14T10:27:27.129Z,37.04
2022-08-14T10:29:58.095Z,36.28
2022-08-14T10:32:28.789Z,36.91
2022-08-14T10:35:10.910Z,36.46
2022-08-14T10:37:46.713Z,38.76
2022-08-14T10:40:37.835Z,37.32
2022-08-14T10:43:02.717Z,37.46
2022-08-14T10:45:33.915Z,37.70
2022-08-14T10:48:08.741Z,37.29
2022-08-14T10:50:51.483Z,37.96
2022-08-14T10:53:29.333Z,36.22
2022-08-14T10:56:03.958Z,36.15
2022-08-14T10:58:32.976Z,36.69
2022-08-14T11:01:08.161Z,36.73
2022-08-14T11:03:56.896Z,36.81
2022-08-14T11:06:24.547Z,36.73
2022-08-14T11:08:52.193Z,36.62
2022-08-14T11:11:22.875Z,36.64
2022-08-14T11:13:50.626Z,36.61
2022-08-14T11:16:18.233Z,36.77
2022-08-14T11:18:50.793Z,36.43
2022-08-14T11:23:49.275Z,35.08
2022-08-14T11:26:20.298Z,35.96
2022-08-14T11:28:49.735Z,37.82
2022-08-14T11:31:23.940Z,36.65
2022-08-14T11:33:55.288Z,34.70
2022-08-14T11:36:24.053Z,35.22
2022-08-14T11:39:33.589Z,36.46
2022-08-14T11:42:57.348Z,36.16
2022-08-14T11:44:51.175Z,34.71
2022-08-14T11:47:20.538Z,34.11
2022-08-14T11:49:48.497Z,34.21
2022-08-14T11:52:19.315Z,35.63
2022-08-14T11:54:58.216Z,34.65
2022-08-14T11:57:25.285Z,35.92
2022-08-14T12:00:08.517Z,35.09
2022-08-14T12:03:02.747Z,33.91
2022-08-14T12:05:42.323Z,34.95
2022-08-14T12:08:13.312Z,34.47
2022-08-14T12:10:43.930Z,34.30
2022-08-14T12:13:17.838Z,35.08
2022-08-14T12:15:46.227Z,33.96
2022-08-14T12:18:19.841Z,34.89
2022-08-14T12:20:52.302Z,33.68
2022-08-14T12:23:23.542Z,33.27
2022-08-14T12:26:31.568Z,32.79
2022-08-14T12:28:59.809Z,34.62
2022-08-14T12:31:27.307Z,32.75
2022-08-14T12:34:02.124Z,32.43
2022-08-14T12:36:37.660Z,32.77
2022-08-14T12:39:17.368Z,32.38
2022-08-14T12:41:57.350Z,31.99
2022-08-14T12:44:32.221Z,33.35
2022-08-14T12:47:17.773Z,32.54
2022-08-14T12:49:52.455Z,33.27
2022-08-14T12:53:02.031Z,32.18
2022-08-14T12:55:44.146Z,32.02
2022-08-14T12:58:35.545Z,31.93
2022-08-14T13:01:16.640Z,32.04
2022-08-14T13:03:45.608Z,33.46
2022-08-14T13:06:14.545Z,31.85
2022-08-14T13:08:52.661Z,31.47
2022-08-14T13:11:23.754Z,30.43
2022-08-14T13:13:53.833Z,31.01
2022-08-14T13:16:37.951Z,31.42
2022-08-14T13:19:11.038Z,30.98
2022-08-14T13:22:05.804Z,29.59
2022-08-14T13:24:27.725Z,29.92
2022-08-14T13:26:58.189Z,29.96
2022-08-14T13:29:31.460Z,29.84
2022-08-14T13:31:58.697Z,29.44
2022-08-14T13:34:29.187Z,28.71
2022-08-14T13:37:04.118Z,29.22
2022-08-14T13:39:36.146Z,28.95
2022-08-14T13:42:08.574Z,29.80
2022-08-14T13:44:42.809Z,29.92
2022-08-14T13:47:10.288Z,29.49
2022-08-14T13:49:40.239Z,28.84
2022-08-14T13:52:49.195Z,28.97
2022-08-14T13:55:13.517Z,29.41
2022-08-14T13:57:49.557Z,30.04
2022-08-14T14:00:21.808Z,29.27
2022-08-14T14:02:59.944Z,29.52
2022-08-14T14:05:52.263Z,28.57
2022-08-14T14:08:18.704Z,29.36
2022-08-14T14:11:02.300Z,28.53
2022-08-14T14:13:31.137Z,28.65
2022-08-14T14:16:02.763Z,28.94
2022-08-14T14:18:34.913Z,28.55
2022-08-14T14:21:02.929Z,29.09
2022-08-14T14:23:31.093Z,28.28
2022-08-14T14:25:59.690Z,28.45
2022-08-14T14:28:31.830Z,27.75
2022-08-14T14:31:05.836Z,28.11
2022-08-14T14:33:50.749Z,28.49
2022-08-14T14:36:26.459Z,29.20
2022-08-14T14:38:54.341Z,27.67
2022-08-14T14:41:23.062Z,27.47
2022-08-14T14:43:51.868Z,27.47
2022-08-14T14:46:19.898Z,26.92
2022-08-14T14:48:53.957Z,27.99
2022-08-14T14:51:21.801Z,27.12
2022-08-14T14:53:48.439Z,27.57
2022-08-14T14:56:48.005Z,26.96
2022-08-14T14:59:01.987Z,26.88
2022-08-14T15:01:28.739Z,26.62
2022-08-14T15:03:55.483Z,26.61
2022-08-14T15:06:30.260Z,26.63
2022-08-14T15:08:59.959Z,26.76
2022-08-14T15:11:30.269Z,26.64
2022-08-14T15:13:58.395Z,26.24
2022-08-14T15:16:26.915Z,26.04
2022-08-14T15:18:53.968Z,26.24
2022-08-14T15:21:20.746Z,27.36
2022-08-14T15:23:48.078Z,26.37
2022-08-14T15:26:23.814Z,25.32
2022-08-14T15:29:05.655Z,25.93
2022-08-14T15:31:34.902Z,26.76
2022-08-14T15:34:45.807Z,26.47
2022-08-14T15:37:00.261Z,26.83
2022-08-14T15:39:29.509Z,26.09
2022-08-14T15:42:02.108Z,26.38
2022-08-14T15:44:34.390Z,26.31
2022-08-14T15:47:07.003Z,26.02
2022-08-14T15:49:35.136Z,25.95
2022-08-14T15:52:03.234Z,25.65
2022-08-14T15:54:31.398Z,26.03
2022-08-14T15:57:08.302Z,27.15
2022-08-14T15:59:55.407Z,26.85
2022-08-14T16:02:24.618Z,25.69
2022-08-14T16:04:55.227Z,25.69
2022-08-14T16:07:22.145Z,26.11
2022-08-14T16:10:11.843Z,26.34
2022-08-14T16:12:41.771Z,26.71
2022-08-14T16:15:14.373Z,28.38
2022-08-14T16:17:44.859Z,28.85
2022-08-14T16:20:11.803Z,27.20
2022-08-14T16:22:58.987Z,26.78
2022-08-14T16:28:27.699Z,27.28
2022-08-14T16:30:56.123Z,25.57
2022-08-14T16:36:19.700Z,25.48
2022-08-14T16:39:00.019Z,25.36
2022-08-14T16:41:29.868Z,27.22
2022-08-14T16:44:31.566Z,27.49
2022-08-14T16:47:02.497Z,27.03
2022-08-14T16:50:03.191Z,27.87
2022-08-14T16:52:25.171Z,27.97
2022-08-14T16:55:05.952Z,28.51
2022-08-14T16:57:34.050Z,29.79
2022-08-14T17:00:00.910Z,31.15
2022-08-14T17:02:42.742Z,32.12
2022-08-14T17:05:16.479Z,30.22
2022-08-14T17:08:32.970Z,29.87
2022-08-14T17:11:09.674Z,31.42
2022-08-14T17:13:57.947Z,30.73
2022-08-14T17:16:25.651Z,31.54
2022-08-14T17:19:00.816Z,31.20
2022-08-14T17:21:41.103Z,31.84
2022-08-14T17:24:55.850Z,31.74
2022-08-14T17:26:59.986Z,31.55
2022-08-14T17:29:33.824Z,32.30
2022-08-14T17:32:22.043Z,31.39
2022-08-14T17:34:55.283Z,31.65
2022-08-14T17:37:28.981Z,32.85
2022-08-14T17:40:16.017Z,31.84
2022-08-14T17:42:51.009Z,31.60
2022-08-14T17:45:28.170Z,33.25
2022-08-14T17:47:59.011Z,31.90
2022-08-14T17:51:01.205Z,33.57
2022-08-14T17:53:30.564Z,32.66
2022-08-14T17:56:02.535Z,32.36
2022-08-14T17:58:30.902Z,32.65
2022-08-14T18:01:06.005Z,31.66
2022-08-14T18:03:51.053Z,31.65
2022-08-14T18:06:39.551Z,31.50
2022-08-14T18:09:26.144Z,32.65
2022-08-14T18:11:59.063Z,33.95
2022-08-14T18:14:32.346Z,34.29
2022-08-14T18:17:01.477Z,34.58
2022-08-14T18:19:31.070Z,34.49
2022-08-14T18:22:05.650Z,33.95
2022-08-14T18:24:51.469Z,33.25
2022-08-14T18:27:23.138Z,33.76
2022-08-14T18:29:55.214Z,33.31
2022-08-14T18:32:31.577Z,33.81
2022-08-14T18:35:03.656Z,33.27
2022-08-14T18:37:39.262Z,32.49
2022-08-14T18:40:17.640Z,33.04
2022-08-14T18:42:47.499Z,32.82
2022-08-14T18:45:28.753Z,34.55
2022-08-14T18:48:18.610Z,34.75
2022-08-14T18:50:53.115Z,33.46
2022-08-14T18:53:24.276Z,33.44
2022-08-14T18:56:02.127Z,33.34
2022-08-14T18:58:58.824Z,33.27
2022-08-14T19:01:29.963Z,33.31
2022-08-14T19:03:59.499Z,33.16
2022-08-14T19:06:37.569Z,33.03
2022-08-14T19:09:05.102Z,33.19
2022-08-14T19:11:32.086Z,33.39
2022-08-14T19:14:04.958Z,33.33
2022-08-14T19:16:34.910Z,33.18
2022-08-14T19:19:04.043Z,33.51
2022-08-14T19:21:32.456Z,33.66
2022-08-14T19:24:30.052Z,34.12
2022-08-14T19:27:23.886Z,33.84
2022-08-14T19:30:19.702Z,34.16
2022-08-14T19:32:50.726Z,33.52
2022-08-14T19:35:19.244Z,33.63
2022-08-14T19:37:54.945Z,34.02
2022-08-14T19:40:33.381Z,33.88
2022-08-14T19:43:02.992Z,34.07
2022-08-14T19:45:33.862Z,34.11
2022-08-14T19:48:02.035Z,33.33
2022-08-14T19:50:40.255Z,34.37
2022-08-14T19:53:12.028Z,33.81
2022-08-14T19:55:58.643Z,33.76
2022-08-14T19:58:55.268Z,33.60
2022-08-14T20:01:37.127Z,33.63
2022-08-14T20:04:45.116Z,34.05
2022-08-14T20:06:56.222Z,34.62
2022-08-14T20:11:06.553Z,33.88
2022-08-14T20:12:29.123Z,34.98
2022-08-14T20:15:06.884Z,34.23
2022-08-14T20:17:40.814Z,34.08
2022-08-14T20:20:30.850Z,34.59
2022-08-14T20:23:02.423Z,34.35
2022-08-14T20:25:55.892Z,34.79
2022-08-14T20:28:30.759Z,34.52
2022-08-14T20:31:14.427Z,35.04
2022-08-14T20:34:19.002Z,34.86
2022-08-14T20:37:09.880Z,34.77
2022-08-14T20:39:54.683Z,35.19
2022-08-14T20:42:43.318Z,35.31
2022-08-14T20:45:24.152Z,36.35
2022-08-14T20:48:09.097Z,38.71
2022-08-14T20:50:36.648Z,37.89
2022-08-14T20:53:28.800Z,37.36
2022-08-14T20:56:04.488Z,38.18
2022-08-14T20:58:47.933Z,39.77
2022-08-14T21:01:32.697Z,39.76
2022-08-14T21:04:01.592Z,38.64
2022-08-14T21:07:22.790Z,39.19
2022-08-14T21:10:04.974Z,39.78
2022-08-14T21:12:33.400Z,39.48
2022-08-14T21:14:59.662Z,39.91
2022-08-14T21:17:27.185Z,40.46
2022-08-14T21:19:53.775Z,40.92
2022-08-14T21:22:20.267Z,38.59
2022-08-14T21:24:47.841Z,39.00
2022-08-14T21:27:20.402Z,41.02
2022-08-14T21:29:55.231Z,38.88
2022-08-14T21:32:34.543Z,40.00
2022-08-14T21:35:06.233Z,39.63
2022-08-14T21:37:43.574Z,41.49
2022-08-14T21:40:40.888Z,42.10
2022-08-14T21:43:01.644Z,40.52
2022-08-14T21:45:28.133Z,41.86
2022-08-14T21:47:56.332Z,40.32
2022-08-14T21:51:00.388Z,41.78
2022-08-14T21:53:10.710Z,42.00
2022-08-14T21:55:37.445Z,40.66
2022-08-14T21:58:54.517Z,40.90
2022-08-14T22:00:51.393Z,39.58
2022-08-14T22:03:24.106Z,40.52
2022-08-14T22:05:53.166Z,41.38
2022-08-14T22:08:22.404Z,39.93
2022-08-14T22:10:55.346Z,39.51
2022-08-14T22:13:26.580Z,42.03
2022-08-14T22:15:59.533Z,40.33
2022-08-14T22:18:27.070Z,41.89
2022-08-14T22:20:56.952Z,42.72
2022-08-14T22:23:24.745Z,42.58
2022-08-14T22:25:53.416Z,40.75
2022-08-14T22:28:33.276Z,41.41
2022-08-14T22:31:03.448Z,40.90
2022-08-14T22:33:30.909Z,42.39
2022-08-14T22:35:58.752Z,42.05
2022-08-14T22:38:35.872Z,41.04
2022-08-14T22:41:26.573Z,40.88
2022-08-14T22:43:53.684Z,41.77
2022-08-14T22:46:21.052Z,41.46
2022-08-14T22:48:49.298Z,41.61
2022-08-14T22:51:18.698Z,41.82
2022-08-14T22:53:48.448Z,42.64
2022-08-14T22:56:20.773Z,42.68
2022-08-14T22:58:53.584Z,44.18
2022-08-14T23:01:55.692Z,44.41
2022-08-14T23:04:35.350Z,45.11
2022-08-14T23:07:21.721Z,45.06
2022-08-14T23:09:55.820Z,45.00
2022-08-14T23:12:28.861Z,43.11
2022-08-14T23:14:56.406Z,43.54
2022-08-14T23:17:23.028Z,44.12
2022-08-14T23:19:49.558Z,42.98
2022-08-14T23:22:24.210Z,42.21
2022-08-14T23:24:53.340Z,42.40
2022-08-14T23:27:31.688Z,41.35
2022-08-14T23:30:31.953Z,41.52
2022-08-14T23:33:01.850Z,41.65
2022-08-14T23:35:29.110Z,42.30
2022-08-14T23:38:05.448Z,41.15
2022-08-14T23:40:34.400Z,40.88
2022-08-14T23:43:08.159Z,40.71
2022-08-14T23:45:39.305Z,41.25
2022-08-14T23:48:12.574Z,40.20
2022-08-14T23:50:40.987Z,41.03
2022-08-14T23:53:28.228Z,41.15
2022-08-14T23:56:32.291Z,39.90
2022-08-14T23:59:01.190Z,40.54
